createdAt,value
2019-05-17T00:02:02.286Z,82.33
2019-05-17T00:04:31.683Z,82.10
2019-05-17T00:07:06.311Z,81.19
2019-05-17T00:09:37.265Z,81.08
2019-05-17T00:12:07.643Z,80.72
2019-05-17T00:14:39.505Z,80.34
2019-05-17T00:17:09.229Z,80.44
2019-05-17T00:19:40.034Z,79.75
2019-05-17T00:22:09.442Z,80.15
2019-05-17T00:24:40.001Z,80.26
2019-05-17T00:27:10.616Z,80.84
2019-05-17T00:29:41.072Z,81.13
2019-05-17T00:32:11.635Z,82.41
2019-05-17T00:34:42.254Z,82.80
2019-05-17T00:37:17.180Z,82.64
2019-05-17T00:39:47.174Z,81.86
2019-05-17T00:42:19.106Z,81.75
2019-05-17T00:44:49.410Z,81.92
2019-05-17T00:47:19.918Z,81.83
2019-05-17T00:49:51.178Z,82.36
2019-05-17T00:52:20.577Z,82.63
2019-05-17T00:54:52.268Z,83.05
2019-05-17T00:57:27.341Z,83.91
2019-05-17T00:59:57.668Z,84.50
2019-05-17T01:02:28.094Z,85.00
2019-05-17T01:04:58.605Z,84.83
2019-05-17T01:07:29.117Z,84.73
2019-05-17T01:09:59.520Z,84.42
2019-05-17T01:12:28.926Z,84.17
2019-05-17T01:14:58.568Z,83.90
2019-05-17T01:17:29.132Z,83.75
2019-05-17T01:19:59.680Z,83.58
2019-05-17T01:22:31.375Z,83.25
2019-05-17T01:25:02.482Z,82.36
2019-05-17T01:27:32.701Z,82.23
2019-05-17T01:30:02.249Z,82.13
2019-05-17T01:32:32.961Z,82.14
2019-05-17T01:35:02.342Z,81.91
2019-05-17T01:37:33.062Z,82.24
2019-05-17T01:40:01.880Z,82.58
2019-05-17T01:42:31.283Z,82.82
2019-05-17T01:45:01.810Z,83.19
2019-05-17T01:47:32.381Z,83.19
2019-05-17T01:50:03.092Z,83.13
2019-05-17T01:52:33.714Z,82.63
2019-05-17T01:55:06.455Z,82.49
2019-05-17T01:57:36.990Z,82.12
2019-05-17T02:00:13.585Z,82.46
2019-05-17T02:02:44.093Z,82.32
2019-05-17T02:05:17.263Z,82.84
2019-05-17T02:07:48.154Z,83.15
2019-05-17T02:10:17.875Z,83.28
2019-05-17T02:12:49.082Z,83.44
2019-05-17T02:15:20.242Z,83.32
2019-05-17T02:17:50.810Z,83.68
2019-05-17T02:20:20.425Z,84.17
2019-05-17T02:22:52.222Z,83.50
2019-05-17T02:25:23.310Z,82.90
2019-05-17T02:27:53.915Z,83.10
2019-05-17T02:30:24.938Z,82.93
2019-05-17T02:32:54.809Z,83.44
2019-05-17T02:35:23.542Z,83.60
2019-05-17T02:37:54.059Z,83.34
2019-05-17T02:40:23.455Z,83.04
2019-05-17T02:42:53.697Z,83.27
2019-05-17T02:45:25.484Z,82.68
2019-05-17T02:47:55.277Z,82.75
2019-05-17T02:50:26.116Z,82.73
2019-05-17T02:52:56.694Z,82.62
2019-05-17T02:55:27.100Z,82.80
2019-05-17T02:57:57.492Z,82.27
2019-05-17T03:00:28.539Z,82.08
2019-05-17T03:03:03.016Z,81.85
2019-05-17T03:05:33.958Z,81.68
2019-05-17T03:08:04.789Z,81.97
2019-05-17T03:10:35.425Z,81.84
2019-05-17T03:13:04.990Z,82.13
2019-05-17T03:15:36.218Z,81.38
2019-05-17T03:18:05.824Z,81.54
2019-05-17T03:20:35.238Z,81.41
2019-05-17T03:23:05.637Z,81.43
2019-05-17T03:25:35.214Z,80.99
2019-05-17T03:28:04.243Z,80.70
2019-05-17T03:30:37.565Z,81.49
2019-05-17T03:33:08.641Z,81.71
2019-05-17T03:35:38.920Z,81.72
2019-05-17T03:38:08.632Z,81.55
2019-05-17T03:41:03.483Z,81.25
2019-05-17T03:43:13.542Z,81.26
2019-05-17T03:45:42.613Z,81.11
2019-05-17T03:48:14.500Z,80.82
2019-05-17T03:50:47.094Z,80.23
2019-05-17T03:53:18.033Z,80.31
2019-05-17T03:55:48.535Z,80.22
2019-05-17T03:58:23.549Z,79.75
2019-05-17T04:00:54.267Z,78.81
2019-05-17T04:03:24.760Z,78.10
2019-05-17T04:05:56.628Z,77.74
2019-05-17T04:08:26.109Z,77.88
2019-05-17T04:10:55.601Z,78.33
2019-05-17T04:13:25.977Z,77.98
2019-05-17T04:15:57.694Z,77.13
2019-05-17T04:18:28.342Z,77.73
2019-05-17T04:20:59.271Z,76.29
2019-05-17T04:23:33.938Z,76.50
2019-05-17T04:26:04.488Z,76.63
2019-05-17T04:28:35.292Z,76.55
2019-05-17T04:31:05.697Z,75.73
2019-05-17T04:33:35.751Z,75.17
2019-05-17T04:36:06.299Z,75.30
2019-05-17T04:38:36.604Z,74.84
2019-05-17T04:41:06.136Z,74.48
2019-05-17T04:43:36.578Z,74.22
2019-05-17T04:46:07.104Z,74.26
2019-05-17T04:48:37.934Z,74.10
2019-05-17T04:51:07.433Z,74.04
2019-05-17T04:53:38.092Z,73.19
2019-05-17T04:56:08.602Z,73.25
2019-05-17T04:58:38.393Z,72.82
2019-05-17T05:01:07.855Z,72.05
2019-05-17T05:03:39.299Z,71.83
2019-05-17T05:06:08.921Z,71.96
2019-05-17T05:08:37.704Z,71.77
2019-05-17T05:11:08.470Z,71.48
2019-05-17T05:13:38.956Z,71.19
2019-05-17T05:16:09.863Z,70.95
2019-05-17T05:18:42.093Z,69.83
2019-05-17T05:21:12.450Z,69.30
2019-05-17T05:23:42.984Z,68.57
2019-05-17T05:26:12.789Z,68.14
2019-05-17T05:28:42.176Z,67.34
2019-05-17T05:31:13.654Z,67.27
2019-05-17T05:33:44.383Z,67.13
2019-05-17T05:36:14.167Z,67.42
2019-05-17T05:38:44.558Z,65.66
2019-05-17T05:41:13.921Z,64.19
2019-05-17T05:43:44.218Z,61.14
2019-05-17T05:46:14.625Z,60.02
2019-05-17T05:48:45.344Z,56.50
2019-05-17T05:51:15.181Z,52.51
2019-05-17T05:53:45.846Z,48.35
2019-05-17T05:56:14.324Z,40.46
2019-05-17T05:58:44.511Z,27.74
2019-05-17T06:01:13.932Z,23.18
2019-05-17T06:03:44.301Z,21.03
2019-05-17T06:06:14.544Z,18.86
2019-05-17T06:08:44.037Z,16.86
2019-05-17T06:11:14.500Z,16.13
2019-05-17T06:13:45.929Z,16.70
2019-05-17T06:16:17.517Z,15.95
2019-05-17T06:18:51.718Z,16.28
2019-05-17T06:21:23.830Z,16.56
2019-05-17T06:23:53.254Z,15.13
2019-05-17T06:26:23.986Z,14.73
2019-05-17T06:28:53.450Z,13.96
2019-05-17T06:31:24.096Z,15.15
2019-05-17T06:33:53.592Z,14.61
2019-05-17T06:36:23.056Z,14.24
2019-05-17T06:38:55.987Z,14.35
2019-05-17T06:41:26.318Z,13.62
2019-05-17T06:43:58.861Z,13.17
2019-05-17T06:46:32.447Z,12.61
2019-05-17T06:49:03.087Z,13.49
2019-05-17T06:51:35.508Z,13.15
2019-05-17T06:54:05.918Z,12.12
2019-05-17T06:56:38.513Z,12.46
2019-05-17T06:59:09.021Z,12.99
2019-05-17T07:01:41.031Z,12.12
2019-05-17T07:04:12.174Z,12.82
2019-05-17T07:06:42.750Z,12.88
2019-05-17T07:09:12.890Z,11.87
2019-05-17T07:11:43.409Z,11.28
2019-05-17T07:14:16.054Z,13.78
2019-05-17T07:16:46.452Z,17.55
2019-05-17T07:19:15.830Z,15.66
2019-05-17T07:21:46.538Z,25.07
2019-05-17T07:24:15.796Z,19.83
2019-05-17T07:26:45.327Z,16.51
2019-05-17T07:29:15.779Z,14.85
2019-05-17T07:31:49.677Z,19.22
2019-05-17T07:34:19.971Z,15.58
2019-05-17T07:36:50.647Z,15.59
2019-05-17T07:39:21.360Z,19.97
2019-05-17T07:41:54.793Z,17.84
2019-05-17T07:44:26.316Z,20.21
2019-05-17T07:46:56.617Z,19.62
2019-05-17T07:49:26.376Z,26.37
2019-05-17T07:51:56.325Z,21.89
2019-05-17T07:54:27.037Z,19.90
2019-05-17T07:56:56.439Z,25.11
2019-05-17T07:59:25.869Z,22.27
2019-05-17T08:01:57.075Z,18.79
2019-05-17T08:04:29.850Z,29.74
2019-05-17T08:06:59.836Z,21.87
2019-05-17T08:09:30.103Z,22.86
2019-05-17T08:12:00.929Z,17.92
2019-05-17T08:14:33.562Z,14.35
2019-05-17T08:17:05.179Z,18.63
2019-05-17T08:19:34.546Z,16.98
2019-05-17T08:22:05.565Z,16.55
2019-05-17T08:24:36.079Z,20.31
2019-05-17T08:27:05.652Z,19.95
2019-05-17T08:29:40.292Z,20.35
2019-05-17T08:32:10.858Z,15.35
2019-05-17T08:34:42.152Z,16.92
2019-05-17T08:37:11.987Z,19.41
2019-05-17T08:39:40.892Z,18.69
2019-05-17T08:42:11.632Z,30.53
2019-05-17T08:44:42.140Z,28.06
2019-05-17T08:47:11.723Z,31.95
2019-05-17T08:49:42.067Z,27.55
2019-05-17T08:52:12.624Z,34.74
2019-05-17T08:54:43.140Z,29.64
2019-05-17T08:57:12.604Z,35.28
2019-05-17T08:59:44.597Z,24.49
2019-05-17T09:02:14.088Z,30.27
2019-05-17T09:04:43.609Z,29.96
2019-05-17T09:07:14.122Z,32.05
2019-05-17T09:09:44.654Z,24.00
2019-05-17T09:12:14.035Z,17.97
2019-05-17T09:14:44.500Z,21.35
2019-05-17T09:17:15.009Z,22.56
2019-05-17T09:19:45.624Z,28.89
2019-05-17T09:22:15.131Z,26.52
2019-05-17T09:24:45.606Z,20.06
2019-05-17T09:27:16.747Z,19.94
2019-05-17T09:29:49.729Z,27.64
2019-05-17T09:32:20.544Z,31.31
2019-05-17T09:34:50.101Z,31.86
2019-05-17T09:37:22.625Z,32.04
2019-05-17T09:39:52.048Z,28.16
2019-05-17T09:42:21.372Z,23.64
2019-05-17T09:44:51.875Z,22.82
2019-05-17T09:47:23.342Z,27.16
2019-05-17T09:49:52.787Z,32.06
2019-05-17T09:52:24.462Z,32.77
2019-05-17T09:54:55.060Z,28.01
2019-05-17T09:57:25.545Z,27.96
2019-05-17T09:59:56.300Z,32.38
2019-05-17T10:02:28.890Z,32.10
2019-05-17T10:04:59.785Z,31.79
2019-05-17T10:07:29.946Z,37.15
2019-05-17T10:10:01.673Z,36.75
2019-05-17T10:12:31.032Z,36.98
2019-05-17T10:15:01.441Z,35.20
2019-05-17T10:17:32.157Z,37.18
2019-05-17T10:20:01.666Z,36.67
2019-05-17T10:22:31.032Z,38.46
2019-05-17T10:25:01.622Z,40.72
2019-05-17T10:27:32.119Z,41.85
2019-05-17T10:30:02.011Z,41.28
2019-05-17T10:32:31.465Z,37.49
2019-05-17T10:35:00.871Z,37.16
2019-05-17T10:37:31.432Z,39.06
2019-05-17T10:40:03.823Z,39.43
2019-05-17T10:42:33.306Z,41.05
2019-05-17T10:45:03.905Z,43.26
2019-05-17T10:47:33.485Z,42.34
2019-05-17T10:50:06.606Z,40.79
2019-05-17T10:52:40.974Z,40.25
2019-05-17T10:55:10.774Z,40.87
2019-05-17T10:57:42.425Z,41.52
2019-05-17T11:00:16.302Z,44.41
2019-05-17T11:02:45.737Z,43.00
2019-05-17T11:05:20.120Z,43.98
2019-05-17T11:07:50.761Z,44.31
2019-05-17T11:10:21.327Z,43.10
2019-05-17T11:12:51.734Z,43.71
2019-05-17T11:15:21.141Z,43.09
2019-05-17T11:17:50.508Z,42.42
2019-05-17T11:20:20.445Z,42.27
2019-05-17T11:22:49.846Z,42.84
2019-05-17T11:25:19.272Z,43.70
2019-05-17T11:27:51.125Z,42.91
2019-05-17T11:30:21.649Z,43.79
2019-05-17T11:32:52.279Z,45.76
2019-05-17T11:35:24.686Z,43.83
2019-05-17T11:37:54.331Z,42.43
2019-05-17T11:40:25.475Z,43.08
2019-05-17T11:42:57.668Z,44.13
2019-05-17T11:45:32.449Z,43.41
2019-05-17T11:48:01.280Z,43.64
2019-05-17T11:50:33.670Z,44.23
2019-05-17T11:53:05.050Z,43.36
2019-05-17T11:55:34.702Z,41.78
2019-05-17T11:58:05.205Z,42.09
2019-05-17T12:00:37.135Z,43.21
2019-05-17T12:03:07.536Z,43.06
2019-05-17T12:05:37.971Z,43.19
2019-05-17T12:08:10.266Z,43.44
2019-05-17T12:10:39.678Z,44.27
2019-05-17T12:13:09.134Z,42.53
2019-05-17T12:15:44.825Z,43.07
2019-05-17T12:18:10.018Z,41.58
2019-05-17T12:20:41.782Z,42.27
2019-05-17T12:23:12.384Z,42.38
2019-05-17T12:25:43.000Z,42.44
2019-05-17T12:28:12.475Z,43.53
2019-05-17T12:30:44.304Z,43.09
2019-05-17T12:33:16.570Z,43.22
2019-05-17T12:35:45.919Z,42.92
2019-05-17T12:38:16.393Z,42.93
2019-05-17T12:40:47.315Z,41.93
2019-05-17T12:43:16.823Z,41.24
2019-05-17T12:46:00.285Z,41.64
2019-05-17T12:48:20.734Z,43.99
2019-05-17T12:50:51.364Z,42.21
2019-05-17T12:53:21.719Z,43.51
2019-05-17T12:55:53.190Z,43.29
2019-05-17T12:58:22.761Z,41.70
2019-05-17T13:00:53.179Z,41.87
2019-05-17T13:03:23.537Z,42.82
2019-05-17T13:05:54.305Z,44.12
2019-05-17T13:08:23.706Z,44.31
2019-05-17T13:10:53.134Z,43.56
2019-05-17T13:13:23.641Z,41.38
2019-05-17T13:15:54.000Z,41.07
2019-05-17T13:18:23.513Z,41.19
2019-05-17T13:20:52.795Z,41.35
2019-05-17T13:23:23.162Z,40.09
2019-05-17T13:25:53.567Z,39.48
2019-05-17T13:28:23.078Z,39.99
2019-05-17T13:30:55.219Z,40.74
2019-05-17T13:33:24.734Z,40.76
2019-05-17T13:35:55.084Z,41.49
2019-05-17T13:38:25.491Z,41.20
2019-05-17T13:40:56.113Z,39.65
2019-05-17T13:43:24.559Z,40.04
2019-05-17T13:45:54.932Z,41.05
2019-05-17T13:48:25.903Z,39.78
2019-05-17T13:50:54.680Z,37.97
2019-05-17T13:53:25.332Z,36.30
2019-05-17T13:55:55.927Z,37.08
2019-05-17T13:58:26.506Z,37.25
2019-05-17T14:00:56.440Z,38.63
2019-05-17T14:03:29.549Z,38.38
2019-05-17T14:06:00.178Z,38.80
2019-05-17T14:08:30.776Z,39.50
2019-05-17T14:11:02.564Z,40.21
2019-05-17T14:13:32.183Z,40.21
2019-05-17T14:16:03.160Z,40.31
2019-05-17T14:18:32.556Z,40.60
2019-05-17T14:21:02.743Z,40.03
2019-05-17T14:23:33.322Z,39.84
2019-05-17T14:26:02.986Z,39.65
2019-05-17T14:28:32.659Z,39.60
2019-05-17T14:31:02.041Z,39.74
2019-05-17T14:33:32.532Z,39.18
2019-05-17T14:36:03.252Z,39.38
2019-05-17T14:38:34.660Z,39.55
2019-05-17T14:41:07.379Z,39.47
2019-05-17T14:43:35.625Z,38.61
2019-05-17T14:46:05.875Z,38.60
2019-05-17T14:48:35.487Z,39.05
2019-05-17T14:51:08.511Z,39.85
2019-05-17T14:53:38.987Z,38.68
2019-05-17T14:56:09.419Z,39.72
2019-05-17T14:58:39.931Z,39.28
2019-05-17T15:01:10.358Z,39.69
2019-05-17T15:03:39.845Z,38.37
2019-05-17T15:06:13.763Z,38.87
2019-05-17T15:08:43.120Z,38.80
2019-05-17T15:11:14.164Z,38.09
2019-05-17T15:13:44.875Z,38.17
2019-05-17T15:16:15.949Z,39.44
2019-05-17T15:18:46.620Z,38.61
2019-05-17T15:21:18.074Z,38.05
2019-05-17T15:23:46.854Z,39.20
2019-05-17T15:26:15.644Z,39.14
2019-05-17T15:28:45.951Z,40.91
2019-05-17T15:31:14.888Z,43.39
2019-05-17T15:33:43.622Z,44.26
2019-05-17T15:36:17.791Z,43.19
2019-05-17T15:38:48.440Z,42.73
2019-05-17T15:41:19.634Z,42.77
2019-05-17T15:43:49.129Z,42.76
2019-05-17T15:46:18.520Z,43.45
2019-05-17T15:48:50.613Z,43.82
2019-05-17T15:51:20.965Z,43.85
2019-05-17T15:53:51.365Z,42.44
2019-05-17T15:56:21.868Z,42.44
2019-05-17T15:58:52.841Z,41.67
2019-05-17T16:01:22.266Z,41.45
2019-05-17T16:03:51.652Z,41.06
2019-05-17T16:06:23.283Z,41.58
2019-05-17T16:08:52.810Z,41.40
2019-05-17T16:11:22.117Z,41.42
2019-05-17T16:13:52.514Z,41.04
2019-05-17T16:16:22.839Z,42.89
2019-05-17T16:18:52.226Z,44.39
2019-05-17T16:21:22.799Z,44.39
2019-05-17T16:23:55.025Z,45.23
2019-05-17T16:26:25.386Z,44.66
2019-05-17T16:28:58.022Z,45.29
2019-05-17T16:31:27.392Z,46.37
2019-05-17T16:33:57.039Z,46.42
2019-05-17T16:36:30.968Z,46.88
2019-05-17T16:39:01.490Z,45.57
2019-05-17T16:41:31.789Z,45.37
2019-05-17T16:44:01.302Z,45.32
2019-05-17T16:46:32.076Z,45.12
2019-05-17T16:49:01.492Z,44.95
2019-05-17T16:51:34.410Z,45.94
2019-05-17T16:54:03.275Z,45.05
2019-05-17T16:56:33.585Z,45.82
2019-05-17T16:59:06.810Z,46.36
2019-05-17T17:01:39.618Z,46.39
2019-05-17T17:04:08.988Z,47.08
2019-05-17T17:06:39.884Z,48.04
2019-05-17T17:09:10.841Z,47.99
2019-05-17T17:11:41.240Z,47.92
2019-05-17T17:14:10.659Z,48.45
2019-05-17T17:16:44.355Z,48.44
2019-05-17T17:19:14.876Z,49.04
2019-05-17T17:21:45.373Z,48.55
2019-05-17T17:24:16.239Z,48.95
2019-05-17T17:26:49.376Z,48.78
2019-05-17T17:29:22.226Z,49.05
2019-05-17T17:31:51.674Z,49.17
2019-05-17T17:34:23.836Z,49.38
2019-05-17T17:36:54.009Z,49.47
2019-05-17T17:39:25.102Z,49.84
2019-05-17T17:41:56.765Z,49.83
2019-05-17T17:44:26.059Z,50.14
2019-05-17T17:46:55.649Z,50.19
2019-05-17T17:49:28.187Z,50.45
2019-05-17T17:51:59.735Z,50.67
2019-05-17T17:54:29.437Z,51.15
2019-05-17T17:57:00.046Z,51.37
2019-05-17T17:59:29.544Z,51.43
2019-05-17T18:01:58.858Z,51.87
2019-05-17T18:04:27.422Z,52.54
2019-05-17T18:07:00.086Z,52.34
2019-05-17T18:09:32.781Z,52.27
2019-05-17T18:12:04.452Z,52.84
2019-05-17T18:14:35.272Z,53.24
2019-05-17T18:17:05.884Z,52.38
2019-05-17T18:19:39.636Z,52.42
2019-05-17T18:22:09.127Z,52.52
2019-05-17T18:24:39.506Z,53.15
2019-05-17T18:27:11.896Z,53.10
2019-05-17T18:29:43.076Z,53.53
2019-05-17T18:32:15.009Z,53.84
2019-05-17T18:34:44.732Z,54.50
2019-05-17T18:37:14.402Z,54.34
2019-05-17T18:39:45.281Z,54.91
2019-05-17T18:42:16.210Z,55.70
2019-05-17T18:44:45.626Z,55.90
2019-05-17T18:47:14.939Z,56.53
2019-05-17T18:49:45.336Z,56.77
2019-05-17T18:52:15.742Z,57.76
2019-05-17T18:54:47.714Z,58.22
2019-05-17T18:57:18.123Z,57.77
2019-05-17T18:59:50.093Z,58.13
2019-05-17T19:02:20.605Z,59.41
2019-05-17T19:04:52.889Z,59.17
2019-05-17T19:07:23.609Z,58.23
2019-05-17T19:09:54.018Z,59.11
2019-05-17T19:12:24.524Z,58.96
2019-05-17T19:14:56.511Z,59.00
2019-05-17T19:17:27.124Z,60.19
2019-05-17T19:19:56.519Z,59.45
2019-05-17T19:22:25.030Z,59.06
2019-05-17T19:24:54.414Z,59.21
2019-05-17T19:27:24.134Z,58.91
2019-05-17T19:29:53.436Z,59.24
2019-05-17T19:32:22.874Z,59.77
2019-05-17T19:34:54.000Z,59.94
2019-05-17T19:37:24.611Z,59.37
2019-05-17T19:39:57.102Z,59.31
2019-05-17T19:42:27.619Z,59.66
2019-05-17T19:44:59.476Z,60.22
2019-05-17T19:47:29.156Z,60.18
2019-05-17T19:49:58.890Z,60.74
2019-05-17T19:52:29.982Z,60.33
2019-05-17T19:54:59.383Z,60.89
2019-05-17T19:57:29.028Z,60.72
2019-05-17T19:59:58.546Z,60.63
2019-05-17T20:02:30.962Z,61.55
2019-05-17T20:05:00.581Z,62.23
2019-05-17T20:07:37.645Z,62.02
2019-05-17T20:10:01.191Z,62.20
2019-05-17T20:12:33.837Z,62.22
2019-05-17T20:15:16.594Z,62.17
2019-05-17T20:17:42.481Z,62.46
2019-05-17T20:20:12.480Z,62.71
2019-05-17T20:22:42.601Z,62.35
2019-05-17T20:25:12.502Z,62.10
2019-05-17T20:27:44.324Z,62.28
2019-05-17T20:30:15.320Z,63.33
2019-05-17T20:32:46.290Z,62.78
2019-05-17T20:35:18.007Z,63.21
2019-05-17T20:37:48.755Z,62.84
2019-05-17T20:40:20.491Z,62.72
2019-05-17T20:42:51.912Z,62.80
2019-05-17T20:45:32.622Z,63.06
2019-05-17T20:47:53.927Z,63.13
2019-05-17T20:50:24.334Z,64.04
2019-05-17T20:52:56.664Z,63.30
2019-05-17T20:55:27.454Z,63.30
2019-05-17T20:57:57.038Z,63.25
2019-05-17T21:00:29.507Z,63.27
2019-05-17T21:02:58.926Z,64.26
2019-05-17T21:05:28.278Z,64.95
2019-05-17T21:07:57.619Z,65.08
2019-05-17T21:10:27.209Z,64.75
2019-05-17T21:12:57.855Z,64.41
2019-05-17T21:15:27.188Z,65.23
2019-05-17T21:17:57.646Z,65.40
2019-05-17T21:20:31.499Z,65.10
2019-05-17T21:23:01.909Z,66.15
2019-05-17T21:25:33.874Z,66.62
2019-05-17T21:28:04.338Z,66.52
2019-05-17T21:30:34.688Z,66.15
2019-05-17T21:33:05.208Z,66.24
2019-05-17T21:35:34.990Z,66.37
2019-05-17T21:38:05.589Z,65.61
2019-05-17T21:40:37.903Z,66.39
2019-05-17T21:43:08.286Z,66.43
2019-05-17T21:45:38.698Z,67.21
2019-05-17T21:48:10.974Z,67.91
2019-05-17T21:50:41.381Z,67.65
2019-05-17T21:53:11.793Z,67.43
2019-05-17T21:55:41.706Z,67.42
2019-05-17T21:58:12.075Z,67.12
2019-05-17T22:01:00.036Z,67.41
2019-05-17T22:03:30.326Z,67.02
2019-05-17T22:06:00.733Z,66.98
2019-05-17T22:08:33.018Z,67.88
2019-05-17T22:11:02.325Z,67.85
2019-05-17T22:13:33.934Z,68.05
2019-05-17T22:16:18.643Z,68.86
2019-05-17T22:18:36.730Z,68.63
2019-05-17T22:21:07.240Z,68.39
2019-05-17T22:23:36.829Z,68.30
2019-05-17T22:26:06.434Z,68.47
2019-05-17T22:28:36.794Z,68.22
2019-05-17T22:31:07.658Z,68.32
2019-05-17T22:33:38.118Z,68.42
2019-05-17T22:36:08.629Z,68.46
2019-05-17T22:38:38.048Z,68.42
2019-05-17T22:41:07.410Z,68.68
2019-05-17T22:43:37.769Z,68.95
2019-05-17T22:46:07.283Z,68.68
2019-05-17T22:48:37.626Z,68.79
2019-05-17T22:51:08.953Z,69.25
2019-05-17T22:53:39.380Z,69.46
2019-05-17T22:56:08.860Z,69.85
2019-05-17T22:58:40.734Z,69.43
2019-05-17T23:01:11.130Z,69.53
2019-05-17T23:03:41.520Z,70.08
2019-05-17T23:06:12.030Z,70.59
2019-05-17T23:08:42.438Z,70.77
2019-05-17T23:11:11.852Z,70.55
2019-05-17T23:13:40.330Z,70.62
2019-05-17T23:16:14.385Z,70.24
2019-05-17T23:18:46.358Z,70.54
2019-05-17T23:21:18.005Z,70.67
2019-05-17T23:23:48.527Z,70.67
2019-05-17T23:26:19.037Z,70.75
2019-05-17T23:28:48.434Z,70.68
2019-05-17T23:31:17.909Z,71.01
2019-05-17T23:33:48.273Z,71.19
2019-05-17T23:36:18.735Z,71.64
2019-05-17T23:38:49.289Z,71.33
2019-05-17T23:41:21.236Z,71.56
2019-05-17T23:43:51.982Z,71.51
2019-05-17T23:46:20.926Z,71.71
2019-05-17T23:48:52.531Z,71.75
2019-05-17T23:51:22.988Z,72.09
2019-05-17T23:53:53.676Z,72.38
2019-05-17T23:56:24.114Z,72.37
2019-05-17T23:58:54.584Z,72.67
